sensor_id;sensor_type;location;lat;lon;timestamp;P1;durP1;ratioP1;P2;durP2;ratioP2
3801;SDS011;1916;51.798;12.246;2023-12-14T00:00:01;13.43;;;10.50;;
3801;SDS011;1916;51.798;12.246;2023-12-14T00:02:06;12.77;;;10.10;;
3801;SDS011;1916;51.798;12.246;2023-12-14T00:04:08;12.20;;;9.77;;
3801;SDS011;1916;51.798;12.246;2023-12-14T00:06:10;15.80;;;11.40;;
3801;SDS011;1916;51.798;12.246;2023-12-14T00:08:13;13.67;;;10.70;;
3801;SDS011;1916;51.798;12.246;2023-12-14T00:10:15;15.97;;;12.43;;
3801;SDS011;1916;51.798;12.246;2023-12-14T00:12:19;14.00;;;11.40;;
3801;SDS011;1916;51.798;12.246;2023-12-14T00:14:21;17.13;;;11.80;;
3801;SDS011;1916;51.798;12.246;2023-12-14T00:16:23;12.90;;;10.40;;
3801;SDS011;1916;51.798;12.246;2023-12-14T00:18:26;14.13;;;11.00;;
3801;SDS011;1916;51.798;12.246;2023-12-14T00:20:28;17.40;;;12.53;;
3801;SDS011;1916;51.798;12.246;2023-12-14T00:22:30;14.87;;;11.90;;
3801;SDS011;1916;51.798;12.246;2023-12-14T00:24:32;18.80;;;12.53;;
3801;SDS011;1916;51.798;12.246;2023-12-14T00:26:34;16.10;;;11.90;;
3801;SDS011;1916;51.798;12.246;2023-12-14T00:28:37;17.83;;;13.70;;
3801;SDS011;1916;51.798;12.246;2023-12-14T00:30:39;15.80;;;12.33;;
3801;SDS011;1916;51.798;12.246;2023-12-14T00:32:41;18.47;;;13.10;;
3801;SDS011;1916;51.798;12.246;2023-12-14T00:34:43;16.80;;;14.30;;
3801;SDS011;1916;51.798;12.246;2023-12-14T00:36:45;17.37;;;12.20;;
3801;SDS011;1916;51.798;12.246;2023-12-14T00:38:47;15.90;;;12.80;;
3801;SDS011;1916;51.798;12.246;2023-12-14T00:40:50;18.13;;;12.57;;
3801;SDS011;1916;51.798;12.246;2023-12-14T00:42:52;20.17;;;12.63;;
3801;SDS011;1916;51.798;12.246;2023-12-14T00:44:54;18.80;;;13.67;;
3801;SDS011;1916;51.798;12.246;2023-12-14T00:46:56;18.47;;;13.87;;
3801;SDS011;1916;51.798;12.246;2023-12-14T00:49:00;15.93;;;11.73;;
3801;SDS011;1916;51.798;12.246;2023-12-14T00:51:03;21.73;;;13.90;;
3801;SDS011;1916;51.798;12.246;2023-12-14T00:53:06;19.00;;;12.70;;
3801;SDS011;1916;51.798;12.246;2023-12-14T00:55:08;17.53;;;13.13;;
3801;SDS011;1916;51.798;12.246;2023-12-14T00:57:10;18.17;;;13.13;;
3801;SDS011;1916;51.798;12.246;2023-12-14T00:59:12;16.43;;;12.47;;
3801;SDS011;1916;51.798;12.246;2023-12-14T01:01:14;18.50;;;12.70;;
3801;SDS011;1916;51.798;12.246;2023-12-14T01:03:16;16.57;;;12.30;;
3801;SDS011;1916;51.798;12.246;2023-12-14T01:05:18;19.73;;;12.20;;
3801;SDS011;1916;51.798;12.246;2023-12-14T01:07:21;14.27;;;11.00;;
3801;SDS011;1916;51.798;12.246;2023-12-14T01:09:23;14.63;;;10.30;;
3801;SDS011;1916;51.798;12.246;2023-12-14T01:11:25;11.70;;;9.87;;
3801;SDS011;1916;51.798;12.246;2023-12-14T01:13:27;15.83;;;10.30;;
3801;SDS011;1916;51.798;12.246;2023-12-14T01:15:29;14.20;;;10.60;;
3801;SDS011;1916;51.798;12.246;2023-12-14T01:17:31;17.57;;;11.40;;
3801;SDS011;1916;51.798;12.246;2023-12-14T01:19:40;22.47;;;11.60;;
3801;SDS011;1916;51.798;12.246;2023-12-14T01:21:43;19.87;;;11.40;;
3801;SDS011;1916;51.798;12.246;2023-12-14T01:23:45;17.17;;;11.70;;
3801;SDS011;1916;51.798;12.246;2023-12-14T01:25:47;18.70;;;13.07;;
3801;SDS011;1916;51.798;12.246;2023-12-14T01:27:49;20.57;;;12.73;;
3801;SDS011;1916;51.798;12.246;2023-12-14T01:29:51;18.63;;;12.30;;
3801;SDS011;1916;51.798;12.246;2023-12-14T01:31:53;21.90;;;13.07;;
3801;SDS011;1916;51.798;12.246;2023-12-14T01:33:55;15.53;;;11.43;;
3801;SDS011;1916;51.798;12.246;2023-12-14T01:35:57;18.97;;;13.20;;
3801;SDS011;1916;51.798;12.246;2023-12-14T01:38:00;19.43;;;12.67;;
3801;SDS011;1916;51.798;12.246;2023-12-14T01:40:02;17.10;;;11.30;;
3801;SDS011;1916;51.798;12.246;2023-12-14T01:42:04;16.83;;;11.70;;
3801;SDS011;1916;51.798;12.246;2023-12-14T01:44:06;18.07;;;12.33;;
3801;SDS011;1916;51.798;12.246;2023-12-14T01:46:09;17.40;;;12.07;;
3801;SDS011;1916;51.798;12.246;2023-12-14T01:48:11;16.40;;;11.13;;
3801;SDS011;1916;51.798;12.246;2023-12-14T01:50:14;18.67;;;12.00;;
3801;SDS011;1916;51.798;12.246;2023-12-14T01:52:16;17.87;;;12.33;;
3801;SDS011;1916;51.798;12.246;2023-12-14T01:54:18;14.80;;;10.30;;
3801;SDS011;1916;51.798;12.246;2023-12-14T01:56:20;14.67;;;11.63;;
3801;SDS011;1916;51.798;12.246;2023-12-14T01:58:22;17.90;;;10.50;;
3801;SDS011;1916;51.798;12.246;2023-12-14T02:02:38;14.10;;;10.43;;
3801;SDS011;1916;51.798;12.246;2023-12-14T02:04:41;13.90;;;10.57;;
3801;SDS011;1916;51.798;12.246;2023-12-14T02:06:44;15.10;;;10.50;;
3801;SDS011;1916;51.798;12.246;2023-12-14T02:08:46;16.13;;;10.67;;
3801;SDS011;1916;51.798;12.246;2023-12-14T02:10:48;13.57;;;10.77;;
3801;SDS011;1916;51.798;12.246;2023-12-14T02:12:50;11.60;;;9.20;;
3801;SDS011;1916;51.798;12.246;2023-12-14T02:14:52;10.67;;;8.67;;
3801;SDS011;1916;51.798;12.246;2023-12-14T02:16:54;13.80;;;9.57;;
3801;SDS011;1916;51.798;12.246;2023-12-14T02:18:56;8.93;;;7.80;;
3801;SDS011;1916;51.798;12.246;2023-12-14T02:20:58;10.50;;;7.90;;
3801;SDS011;1916;51.798;12.246;2023-12-14T02:23:00;10.60;;;8.87;;
3801;SDS011;1916;51.798;12.246;2023-12-14T02:25:03;12.00;;;8.40;;
3801;SDS011;1916;51.798;12.246;2023-12-14T02:27:06;10.23;;;8.10;;
3801;SDS011;1916;51.798;12.246;2023-12-14T02:29:08;12.00;;;9.30;;
3801;SDS011;1916;51.798;12.246;2023-12-14T02:31:10;12.10;;;9.60;;
3801;SDS011;1916;51.798;12.246;2023-12-14T02:33:12;12.80;;;8.80;;
3801;SDS011;1916;51.798;12.246;2023-12-14T02:35:14;10.30;;;9.20;;
3801;SDS011;1916;51.798;12.246;2023-12-14T02:37:17;9.70;;;8.70;;
3801;SDS011;1916;51.798;12.246;2023-12-14T02:39:19;11.37;;;9.77;;
3801;SDS011;1916;51.798;12.246;2023-12-14T02:41:21;11.30;;;8.77;;
3801;SDS011;1916;51.798;12.246;2023-12-14T02:43:23;13.10;;;9.97;;
3801;SDS011;1916;51.798;12.246;2023-12-14T02:45:25;12.70;;;9.20;;
3801;SDS011;1916;51.798;12.246;2023-12-14T02:47:27;14.00;;;10.53;;
3801;SDS011;1916;51.798;12.246;2023-12-14T02:49:30;17.20;;;11.87;;
3801;SDS011;1916;51.798;12.246;2023-12-14T02:51:32;24.07;;;14.57;;
3801;SDS011;1916;51.798;12.246;2023-12-14T02:53:35;25.17;;;15.20;;
3801;SDS011;1916;51.798;12.246;2023-12-14T02:55:37;32.97;;;16.00;;
3801;SDS011;1916;51.798;12.246;2023-12-14T02:57:39;30.20;;;17.53;;
3801;SDS011;1916;51.798;12.246;2023-12-14T02:59:41;30.37;;;16.70;;
3801;SDS011;1916;51.798;12.246;2023-12-14T03:01:43;28.40;;;17.30;;
3801;SDS011;1916;51.798;12.246;2023-12-14T03:03:45;29.17;;;17.40;;
3801;SDS011;1916;51.798;12.246;2023-12-14T03:05:47;27.53;;;17.63;;
3801;SDS011;1916;51.798;12.246;2023-12-14T03:07:51;34.77;;;18.43;;
3801;SDS011;1916;51.798;12.246;2023-12-14T03:09:53;27.97;;;16.57;;
3801;SDS011;1916;51.798;12.246;2023-12-14T03:11:55;28.20;;;16.43;;
3801;SDS011;1916;51.798;12.246;2023-12-14T03:13:57;32.53;;;17.00;;
3801;SDS011;1916;51.798;12.246;2023-12-14T03:16:00;29.03;;;16.17;;
3801;SDS011;1916;51.798;12.246;2023-12-14T03:18:02;28.40;;;16.70;;
3801;SDS011;1916;51.798;12.246;2023-12-14T03:20:05;27.37;;;15.50;;
3801;SDS011;1916;51.798;12.246;2023-12-14T03:22:08;31.43;;;16.60;;
3801;SDS011;1916;51.798;12.246;2023-12-14T03:24:10;28.07;;;16.53;;
3801;SDS011;1916;51.798;12.246;2023-12-14T03:26:12;27.70;;;16.87;;
3801;SDS011;1916;51.798;12.246;2023-12-14T03:28:15;25.47;;;14.87;;
3801;SDS011;1916;51.798;12.246;2023-12-14T03:30:17;30.70;;;16.03;;
3801;SDS011;1916;51.798;12.246;2023-12-14T03:32:19;32.00;;;16.90;;
3801;SDS011;1916;51.798;12.246;2023-12-14T03:34:21;25.47;;;15.70;;
3801;SDS011;1916;51.798;12.246;2023-12-14T03:36:23;30.60;;;16.67;;
3801;SDS011;1916;51.798;12.246;2023-12-14T03:38:28;37.77;;;18.13;;
3801;SDS011;1916;51.798;12.246;2023-12-14T03:40:30;33.70;;;16.50;;
3801;SDS011;1916;51.798;12.246;2023-12-14T03:42:32;30.90;;;17.77;;
3801;SDS011;1916;51.798;12.246;2023-12-14T03:44:34;28.93;;;15.77;;
3801;SDS011;1916;51.798;12.246;2023-12-14T03:46:37;32.10;;;17.63;;
3801;SDS011;1916;51.798;12.246;2023-12-14T03:48:39;29.17;;;15.50;;
3801;SDS011;1916;51.798;12.246;2023-12-14T03:50:41;30.73;;;17.27;;
3801;SDS011;1916;51.798;12.246;2023-12-14T03:52:43;30.10;;;17.50;;
3801;SDS011;1916;51.798;12.246;2023-12-14T03:54:45;29.93;;;16.43;;
3801;SDS011;1916;51.798;12.246;2023-12-14T03:56:47;27.70;;;15.53;;
3801;SDS011;1916;51.798;12.246;2023-12-14T03:58:50;32.00;;;17.23;;
3801;SDS011;1916;51.798;12.246;2023-12-14T04:00:52;33.03;;;16.87;;
3801;SDS011;1916;51.798;12.246;2023-12-14T04:02:54;33.10;;;18.50;;
3801;SDS011;1916;51.798;12.246;2023-12-14T04:04:57;34.67;;;18.80;;
3801;SDS011;1916;51.798;12.246;2023-12-14T04:06:59;31.33;;;18.60;;
3801;SDS011;1916;51.798;12.246;2023-12-14T04:09:01;42.17;;;19.43;;
3801;SDS011;1916;51.798;12.246;2023-12-14T04:11:03;36.17;;;18.93;;
3801;SDS011;1916;51.798;12.246;2023-12-14T04:13:05;40.17;;;19.87;;
3801;SDS011;1916;51.798;12.246;2023-12-14T04:15:08;36.00;;;20.03;;
3801;SDS011;1916;51.798;12.246;2023-12-14T04:17:11;31.90;;;17.70;;
3801;SDS011;1916;51.798;12.246;2023-12-14T04:19:14;37.67;;;19.10;;
3801;SDS011;1916;51.798;12.246;2023-12-14T04:21:16;37.67;;;19.40;;
3801;SDS011;1916;51.798;12.246;2023-12-14T04:23:18;41.00;;;20.17;;
3801;SDS011;1916;51.798;12.246;2023-12-14T04:25:20;40.87;;;19.87;;
3801;SDS011;1916;51.798;12.246;2023-12-14T04:27:22;37.53;;;19.30;;
3801;SDS011;1916;51.798;12.246;2023-12-14T04:29:28;32.67;;;17.47;;
3801;SDS011;1916;51.798;12.246;2023-12-14T04:31:30;38.03;;;20.80;;
3801;SDS011;1916;51.798;12.246;2023-12-14T04:33:33;33.93;;;18.37;;
3801;SDS011;1916;51.798;12.246;2023-12-14T04:35:35;36.27;;;18.20;;
3801;SDS011;1916;51.798;12.246;2023-12-14T04:37:38;31.00;;;18.47;;
3801;SDS011;1916;51.798;12.246;2023-12-14T04:39:40;36.17;;;18.40;;
3801;SDS011;1916;51.798;12.246;2023-12-14T04:41:42;32.57;;;18.40;;
3801;SDS011;1916;51.798;12.246;2023-12-14T04:43:45;35.37;;;19.00;;
3801;SDS011;1916;51.798;12.246;2023-12-14T04:45:47;29.57;;;17.97;;
3801;SDS011;1916;51.798;12.246;2023-12-14T04:47:49;28.57;;;17.40;;
3801;SDS011;1916;51.798;12.246;2023-12-14T04:49:52;28.60;;;19.27;;
3801;SDS011;1916;51.798;12.246;2023-12-14T04:51:55;31.90;;;18.77;;
3801;SDS011;1916;51.798;12.246;2023-12-14T04:53:57;28.33;;;18.13;;
3801;SDS011;1916;51.798;12.246;2023-12-14T04:55:59;31.80;;;18.83;;
3801;SDS011;1916;51.798;12.246;2023-12-14T04:58:01;29.60;;;19.27;;
3801;SDS011;1916;51.798;12.246;2023-12-14T05:00:04;28.43;;;17.97;;
3801;SDS011;1916;51.798;12.246;2023-12-14T05:02:07;25.50;;;17.03;;
3801;SDS011;1916;51.798;12.246;2023-12-14T05:04:09;24.83;;;17.07;;
3801;SDS011;1916;51.798;12.246;2023-12-14T05:06:11;27.90;;;18.33;;
3801;SDS011;1916;51.798;12.246;2023-12-14T05:08:13;33.63;;;20.30;;
3801;SDS011;1916;51.798;12.246;2023-12-14T05:10:16;37.77;;;21.90;;
3801;SDS011;1916;51.798;12.246;2023-12-14T05:12:18;37.10;;;21.70;;
3801;SDS011;1916;51.798;12.246;2023-12-14T05:14:20;31.80;;;20.23;;
3801;SDS011;1916;51.798;12.246;2023-12-14T05:16:23;38.87;;;21.83;;
3801;SDS011;1916;51.798;12.246;2023-12-14T05:18:28;34.67;;;19.67;;
3801;SDS011;1916;51.798;12.246;2023-12-14T05:20:30;39.30;;;21.43;;
3801;SDS011;1916;51.798;12.246;2023-12-14T05:22:32;37.43;;;19.40;;
3801;SDS011;1916;51.798;12.246;2023-12-14T05:24:35;32.27;;;21.20;;
3801;SDS011;1916;51.798;12.246;2023-12-14T05:26:37;40.30;;;19.70;;
3801;SDS011;1916;51.798;12.246;2023-12-14T05:28:39;31.50;;;19.23;;
3801;SDS011;1916;51.798;12.246;2023-12-14T05:30:41;30.17;;;17.70;;
3801;SDS011;1916;51.798;12.246;2023-12-14T05:32:44;32.33;;;19.30;;
3801;SDS011;1916;51.798;12.246;2023-12-14T05:34:46;36.37;;;19.70;;
3801;SDS011;1916;51.798;12.246;2023-12-14T05:36:49;33.63;;;19.80;;
3801;SDS011;1916;51.798;12.246;2023-12-14T05:38:51;33.00;;;20.30;;
3801;SDS011;1916;51.798;12.246;2023-12-14T05:40:53;41.37;;;20.60;;
3801;SDS011;1916;51.798;12.246;2023-12-14T05:42:55;32.57;;;19.13;;
3801;SDS011;1916;51.798;12.246;2023-12-14T05:44:57;31.67;;;19.50;;
3801;SDS011;1916;51.798;12.246;2023-12-14T05:46:59;28.83;;;18.27;;
3801;SDS011;1916;51.798;12.246;2023-12-14T05:49:02;36.30;;;20.30;;
3801;SDS011;1916;51.798;12.246;2023-12-14T05:51:04;28.83;;;18.70;;
3801;SDS011;1916;51.798;12.246;2023-12-14T05:53:06;35.03;;;19.27;;
3801;SDS011;1916;51.798;12.246;2023-12-14T05:55:09;33.07;;;19.93;;
3801;SDS011;1916;51.798;12.246;2023-12-14T05:57:12;30.50;;;18.43;;
3801;SDS011;1916;51.798;12.246;2023-12-14T05:59:15;31.53;;;18.60;;
3801;SDS011;1916;51.798;12.246;2023-12-14T06:01:17;30.00;;;18.90;;
3801;SDS011;1916;51.798;12.246;2023-12-14T06:03:20;30.50;;;19.17;;
3801;SDS011;1916;51.798;12.246;2023-12-14T06:05:22;31.93;;;18.87;;
3801;SDS011;1916;51.798;12.246;2023-12-14T06:07:25;36.77;;;20.37;;
3801;SDS011;1916;51.798;12.246;2023-12-14T06:09:27;37.70;;;20.63;;
3801;SDS011;1916;51.798;12.246;2023-12-14T06:11:36;37.47;;;23.27;;
3801;SDS011;1916;51.798;12.246;2023-12-14T06:13:38;44.80;;;23.00;;
3801;SDS011;1916;51.798;12.246;2023-12-14T06:15:41;41.30;;;25.00;;
3801;SDS011;1916;51.798;12.246;2023-12-14T06:17:43;41.77;;;24.73;;
3801;SDS011;1916;51.798;12.246;2023-12-14T06:19:46;40.97;;;23.47;;
3801;SDS011;1916;51.798;12.246;2023-12-14T06:21:48;43.93;;;23.83;;
3801;SDS011;1916;51.798;12.246;2023-12-14T06:23:50;49.20;;;29.10;;
3801;SDS011;1916;51.798;12.246;2023-12-14T06:25:52;46.67;;;28.27;;
3801;SDS011;1916;51.798;12.246;2023-12-14T06:27:54;41.17;;;22.73;;
3801;SDS011;1916;51.798;12.246;2023-12-14T06:29:56;39.63;;;23.97;;
3801;SDS011;1916;51.798;12.246;2023-12-14T06:31:59;41.20;;;23.97;;
3801;SDS011;1916;51.798;12.246;2023-12-14T06:34:01;41.73;;;24.57;;
3801;SDS011;1916;51.798;12.246;2023-12-14T06:36:06;41.50;;;21.47;;
3801;SDS011;1916;51.798;12.246;2023-12-14T06:38:09;45.33;;;23.97;;
3801;SDS011;1916;51.798;12.246;2023-12-14T06:40:12;41.80;;;23.40;;
3801;SDS011;1916;51.798;12.246;2023-12-14T06:42:14;45.73;;;23.43;;
3801;SDS011;1916;51.798;12.246;2023-12-14T06:44:16;40.40;;;23.63;;
3801;SDS011;1916;51.798;12.246;2023-12-14T06:46:19;40.20;;;23.10;;
3801;SDS011;1916;51.798;12.246;2023-12-14T06:48:21;42.00;;;22.63;;
3801;SDS011;1916;51.798;12.246;2023-12-14T06:50:23;36.10;;;21.23;;
3801;SDS011;1916;51.798;12.246;2023-12-14T06:52:25;35.83;;;21.70;;
3801;SDS011;1916;51.798;12.246;2023-12-14T06:54:27;29.27;;;19.80;;
3801;SDS011;1916;51.798;12.246;2023-12-14T06:56:30;30.63;;;20.57;;
3801;SDS011;1916;51.798;12.246;2023-12-14T06:58:32;32.10;;;20.07;;
3801;SDS011;1916;51.798;12.246;2023-12-14T07:00:34;33.77;;;20.07;;
3801;SDS011;1916;51.798;12.246;2023-12-14T07:02:36;31.60;;;20.53;;
3801;SDS011;1916;51.798;12.246;2023-12-14T07:04:39;32.33;;;21.83;;
3801;SDS011;1916;51.798;12.246;2023-12-14T07:06:41;30.90;;;19.77;;
3801;SDS011;1916;51.798;12.246;2023-12-14T07:08:43;31.13;;;19.53;;
3801;SDS011;1916;51.798;12.246;2023-12-14T07:10:45;36.57;;;20.10;;
3801;SDS011;1916;51.798;12.246;2023-12-14T07:12:47;28.83;;;19.00;;
3801;SDS011;1916;51.798;12.246;2023-12-14T07:14:50;30.70;;;18.93;;
3801;SDS011;1916;51.798;12.246;2023-12-14T07:16:52;25.67;;;17.87;;
3801;SDS011;1916;51.798;12.246;2023-12-14T07:18:54;31.70;;;18.00;;
3801;SDS011;1916;51.798;12.246;2023-12-14T07:20:56;27.23;;;17.50;;
3801;SDS011;1916;51.798;12.246;2023-12-14T07:22:58;32.90;;;18.50;;
3801;SDS011;1916;51.798;12.246;2023-12-14T07:25:01;30.23;;;18.93;;
3801;SDS011;1916;51.798;12.246;2023-12-14T07:27:03;27.77;;;18.00;;
3801;SDS011;1916;51.798;12.246;2023-12-14T07:29:05;29.47;;;19.40;;
3801;SDS011;1916;51.798;12.246;2023-12-14T07:31:07;33.40;;;19.60;;
3801;SDS011;1916;51.798;12.246;2023-12-14T07:33:09;31.77;;;19.80;;
3801;SDS011;1916;51.798;12.246;2023-12-14T07:35:11;33.77;;;19.93;;
3801;SDS011;1916;51.798;12.246;2023-12-14T07:37:14;34.07;;;20.80;;
3801;SDS011;1916;51.798;12.246;2023-12-14T07:39:16;36.67;;;20.43;;
3801;SDS011;1916;51.798;12.246;2023-12-14T07:41:18;35.53;;;21.17;;
3801;SDS011;1916;51.798;12.246;2023-12-14T07:43:20;37.40;;;21.93;;
3801;SDS011;1916;51.798;12.246;2023-12-14T07:45:22;40.17;;;23.17;;
3801;SDS011;1916;51.798;12.246;2023-12-14T07:47:24;40.87;;;22.33;;
3801;SDS011;1916;51.798;12.246;2023-12-14T07:49:26;39.47;;;23.30;;
3801;SDS011;1916;51.798;12.246;2023-12-14T07:51:28;39.83;;;23.57;;
3801;SDS011;1916;51.798;12.246;2023-12-14T07:53:31;36.90;;;22.40;;
3801;SDS011;1916;51.798;12.246;2023-12-14T07:55:33;37.83;;;23.40;;
3801;SDS011;1916;51.798;12.246;2023-12-14T07:57:35;36.90;;;21.00;;
3801;SDS011;1916;51.798;12.246;2023-12-14T07:59:37;37.67;;;21.07;;
3801;SDS011;1916;51.798;12.246;2023-12-14T08:01:39;38.37;;;22.47;;
3801;SDS011;1916;51.798;12.246;2023-12-14T08:03:41;38.17;;;22.67;;
3801;SDS011;1916;51.798;12.246;2023-12-14T08:05:44;31.77;;;20.30;;
3801;SDS011;1916;51.798;12.246;2023-12-14T08:07:46;33.00;;;20.70;;
3801;SDS011;1916;51.798;12.246;2023-12-14T08:09:49;33.23;;;20.87;;
3801;SDS011;1916;51.798;12.246;2023-12-14T08:11:51;37.77;;;22.67;;
3801;SDS011;1916;51.798;12.246;2023-12-14T08:13:54;30.30;;;20.60;;
3801;SDS011;1916;51.798;12.246;2023-12-14T08:15:56;36.40;;;21.80;;
3801;SDS011;1916;51.798;12.246;2023-12-14T08:17:58;29.53;;;19.80;;
3801;SDS011;1916;51.798;12.246;2023-12-14T08:20:00;38.00;;;22.97;;
3801;SDS011;1916;51.798;12.246;2023-12-14T08:22:03;37.50;;;22.77;;
3801;SDS011;1916;51.798;12.246;2023-12-14T08:24:05;35.10;;;23.40;;
3801;SDS011;1916;51.798;12.246;2023-12-14T08:26:07;35.63;;;21.43;;
3801;SDS011;1916;51.798;12.246;2023-12-14T08:28:11;36.33;;;20.40;;
3801;SDS011;1916;51.798;12.246;2023-12-14T08:30:14;36.00;;;22.63;;
3801;SDS011;1916;51.798;12.246;2023-12-14T08:32:16;36.13;;;22.10;;
3801;SDS011;1916;51.798;12.246;2023-12-14T08:34:18;34.17;;;22.13;;
3801;SDS011;1916;51.798;12.246;2023-12-14T08:36:20;32.80;;;20.50;;
3801;SDS011;1916;51.798;12.246;2023-12-14T08:38:22;34.83;;;20.83;;
3801;SDS011;1916;51.798;12.246;2023-12-14T08:40:25;32.67;;;20.50;;
3801;SDS011;1916;51.798;12.246;2023-12-14T08:42:27;33.30;;;20.40;;
3801;SDS011;1916;51.798;12.246;2023-12-14T08:44:29;33.10;;;20.20;;
3801;SDS011;1916;51.798;12.246;2023-12-14T08:46:38;32.67;;;21.90;;
3801;SDS011;1916;51.798;12.246;2023-12-14T08:48:43;34.30;;;20.30;;
3801;SDS011;1916;51.798;12.246;2023-12-14T08:50:45;35.80;;;20.60;;
3801;SDS011;1916;51.798;12.246;2023-12-14T08:52:47;36.60;;;18.97;;
3801;SDS011;1916;51.798;12.246;2023-12-14T08:54:49;29.77;;;18.70;;
3801;SDS011;1916;51.798;12.246;2023-12-14T08:56:51;31.13;;;17.87;;
3801;SDS011;1916;51.798;12.246;2023-12-14T08:58:54;29.87;;;18.17;;
3801;SDS011;1916;51.798;12.246;2023-12-14T09:00:56;28.80;;;17.70;;
3801;SDS011;1916;51.798;12.246;2023-12-14T09:02:58;35.13;;;18.20;;
3801;SDS011;1916;51.798;12.246;2023-12-14T09:05:00;32.50;;;18.37;;
3801;SDS011;1916;51.798;12.246;2023-12-14T09:07:02;30.60;;;18.00;;
3801;SDS011;1916;51.798;12.246;2023-12-14T09:09:05;34.87;;;17.60;;
3801;SDS011;1916;51.798;12.246;2023-12-14T09:11:07;26.80;;;16.70;;
3801;SDS011;1916;51.798;12.246;2023-12-14T09:13:10;26.20;;;15.97;;
3801;SDS011;1916;51.798;12.246;2023-12-14T09:15:12;29.87;;;18.10;;
3801;SDS011;1916;51.798;12.246;2023-12-14T09:17:14;27.47;;;16.33;;
3801;SDS011;1916;51.798;12.246;2023-12-14T09:19:16;31.83;;;17.30;;
3801;SDS011;1916;51.798;12.246;2023-12-14T09:21:20;31.80;;;17.60;;
3801;SDS011;1916;51.798;12.246;2023-12-14T09:23:34;31.60;;;17.83;;
3801;SDS011;1916;51.798;12.246;2023-12-14T09:25:36;33.33;;;17.00;;
3801;SDS011;1916;51.798;12.246;2023-12-14T09:27:38;31.37;;;18.73;;
3801;SDS011;1916;51.798;12.246;2023-12-14T09:29:41;28.93;;;17.20;;
3801;SDS011;1916;51.798;12.246;2023-12-14T09:31:43;33.73;;;19.40;;
3801;SDS011;1916;51.798;12.246;2023-12-14T09:33:46;28.23;;;16.63;;
3801;SDS011;1916;51.798;12.246;2023-12-14T09:35:48;32.67;;;18.93;;
3801;SDS011;1916;51.798;12.246;2023-12-14T09:37:50;33.57;;;19.53;;
3801;SDS011;1916;51.798;12.246;2023-12-14T09:39:53;33.03;;;19.63;;
3801;SDS011;1916;51.798;12.246;2023-12-14T09:42:02;37.10;;;18.93;;
3801;SDS011;1916;51.798;12.246;2023-12-14T09:44:06;33.93;;;18.77;;
3801;SDS011;1916;51.798;12.246;2023-12-14T09:46:09;36.80;;;18.17;;
3801;SDS011;1916;51.798;12.246;2023-12-14T09:48:11;34.33;;;19.10;;
3801;SDS011;1916;51.798;12.246;2023-12-14T09:50:14;33.20;;;18.10;;
3801;SDS011;1916;51.798;12.246;2023-12-14T09:52:18;37.83;;;19.77;;
3801;SDS011;1916;51.798;12.246;2023-12-14T09:54:20;29.20;;;17.77;;
3801;SDS011;1916;51.798;12.246;2023-12-14T09:56:22;29.60;;;18.00;;
3801;SDS011;1916;51.798;12.246;2023-12-14T09:58:24;34.80;;;18.27;;
3801;SDS011;1916;51.798;12.246;2023-12-14T10:00:33;32.57;;;18.50;;
3801;SDS011;1916;51.798;12.246;2023-12-14T10:02:36;35.93;;;18.20;;
3801;SDS011;1916;51.798;12.246;2023-12-14T10:04:38;29.97;;;17.97;;
3801;SDS011;1916;51.798;12.246;2023-12-14T10:06:41;35.90;;;17.77;;
3801;SDS011;1916;51.798;12.246;2023-12-14T10:08:54;32.60;;;18.20;;
3801;SDS011;1916;51.798;12.246;2023-12-14T10:10:59;40.03;;;19.93;;
3801;SDS011;1916;51.798;12.246;2023-12-14T10:13:03;31.33;;;17.70;;
3801;SDS011;1916;51.798;12.246;2023-12-14T10:15:05;32.03;;;18.93;;
3801;SDS011;1916;51.798;12.246;2023-12-14T10:17:16;29.33;;;17.10;;
3801;SDS011;1916;51.798;12.246;2023-12-14T10:19:20;32.47;;;17.60;;
3801;SDS011;1916;51.798;12.246;2023-12-14T10:21:23;26.90;;;17.33;;
3801;SDS011;1916;51.798;12.246;2023-12-14T10:23:27;32.90;;;18.00;;
3801;SDS011;1916;51.798;12.246;2023-12-14T10:25:30;32.40;;;17.30;;
3801;SDS011;1916;51.798;12.246;2023-12-14T10:27:32;35.37;;;19.83;;
3801;SDS011;1916;51.798;12.246;2023-12-14T10:29:35;32.83;;;17.77;;
3801;SDS011;1916;51.798;12.246;2023-12-14T10:31:38;39.10;;;19.70;;
3801;SDS011;1916;51.798;12.246;2023-12-14T10:33:41;33.53;;;17.53;;
3801;SDS011;1916;51.798;12.246;2023-12-14T10:35:43;39.77;;;20.73;;
3801;SDS011;1916;51.798;12.246;2023-12-14T10:37:49;36.23;;;19.40;;
3801;SDS011;1916;51.798;12.246;2023-12-14T10:39:53;33.40;;;18.87;;
3801;SDS011;1916;51.798;12.246;2023-12-14T10:41:56;35.03;;;19.10;;
3801;SDS011;1916;51.798;12.246;2023-12-14T10:44:12;34.67;;;18.27;;
3801;SDS011;1916;51.798;12.246;2023-12-14T10:46:34;38.03;;;20.90;;
3801;SDS011;1916;51.798;12.246;2023-12-14T10:48:37;31.00;;;18.13;;
3801;SDS011;1916;51.798;12.246;2023-12-14T10:50:42;27.73;;;16.33;;
3801;SDS011;1916;51.798;12.246;2023-12-14T10:52:44;31.07;;;18.03;;
3801;SDS011;1916;51.798;12.246;2023-12-14T10:54:46;30.30;;;17.00;;
3801;SDS011;1916;51.798;12.246;2023-12-14T10:56:54;30.90;;;17.60;;
3801;SDS011;1916;51.798;12.246;2023-12-14T10:59:00;27.73;;;16.50;;
3801;SDS011;1916;51.798;12.246;2023-12-14T11:01:02;28.37;;;16.57;;
3801;SDS011;1916;51.798;12.246;2023-12-14T11:03:07;29.70;;;17.63;;
3801;SDS011;1916;51.798;12.246;2023-12-14T11:05:15;32.60;;;15.60;;
3801;SDS011;1916;51.798;12.246;2023-12-14T11:07:18;31.07;;;15.40;;
3801;SDS011;1916;51.798;12.246;2023-12-14T11:09:22;28.93;;;16.70;;
3801;SDS011;1916;51.798;12.246;2023-12-14T11:11:27;33.27;;;15.30;;
3801;SDS011;1916;51.798;12.246;2023-12-14T11:13:30;29.47;;;15.40;;
3801;SDS011;1916;51.798;12.246;2023-12-14T11:15:34;26.93;;;14.50;;
3801;SDS011;1916;51.798;12.246;2023-12-14T11:17:36;33.73;;;17.60;;
3801;SDS011;1916;51.798;12.246;2023-12-14T11:19:39;28.47;;;15.77;;
3801;SDS011;1916;51.798;12.246;2023-12-14T11:21:41;34.47;;;17.07;;
3801;SDS011;1916;51.798;12.246;2023-12-14T11:23:43;32.43;;;16.67;;
3801;SDS011;1916;51.798;12.246;2023-12-14T11:25:48;29.50;;;17.70;;
3801;SDS011;1916;51.798;12.246;2023-12-14T11:28:03;33.63;;;18.23;;
3801;SDS011;1916;51.798;12.246;2023-12-14T11:30:05;29.47;;;18.60;;
3801;SDS011;1916;51.798;12.246;2023-12-14T11:32:09;34.47;;;16.93;;
3801;SDS011;1916;51.798;12.246;2023-12-14T11:34:12;36.00;;;18.50;;
3801;SDS011;1916;51.798;12.246;2023-12-14T11:36:15;37.20;;;19.83;;
3801;SDS011;1916;51.798;12.246;2023-12-14T11:38:18;34.40;;;18.90;;
3801;SDS011;1916;51.798;12.246;2023-12-14T11:40:22;32.93;;;18.13;;
3801;SDS011;1916;51.798;12.246;2023-12-14T11:42:25;39.00;;;19.90;;
3801;SDS011;1916;51.798;12.246;2023-12-14T11:44:27;43.53;;;19.40;;
3801;SDS011;1916;51.798;12.246;2023-12-14T11:46:29;40.83;;;17.60;;
3801;SDS011;1916;51.798;12.246;2023-12-14T11:48:33;45.33;;;19.70;;
3801;SDS011;1916;51.798;12.246;2023-12-14T11:50:35;42.23;;;21.53;;
3801;SDS011;1916;51.798;12.246;2023-12-14T11:52:37;41.23;;;20.33;;
3801;SDS011;1916;51.798;12.246;2023-12-14T11:54:40;41.63;;;20.23;;
3801;SDS011;1916;51.798;12.246;2023-12-14T11:56:48;42.33;;;22.43;;
3801;SDS011;1916;51.798;12.246;2023-12-14T11:58:51;41.20;;;21.37;;
3801;SDS011;1916;51.798;12.246;2023-12-14T12:00:55;38.53;;;20.20;;
3801;SDS011;1916;51.798;12.246;2023-12-14T12:03:13;40.10;;;20.43;;
3801;SDS011;1916;51.798;12.246;2023-12-14T12:05:17;41.17;;;20.10;;
3801;SDS011;1916;51.798;12.246;2023-12-14T12:07:21;35.53;;;19.63;;
3801;SDS011;1916;51.798;12.246;2023-12-14T12:09:37;36.63;;;21.67;;
3801;SDS011;1916;51.798;12.246;2023-12-14T12:11:40;41.23;;;22.40;;